createdAt,value
2019-04-01T00:02:22.219Z,9.70
2019-04-01T00:04:54.173Z,9.70
2019-04-01T00:07:27.804Z,9.60
2019-04-01T00:10:02.067Z,9.50
2019-04-01T00:12:36.372Z,9.20
2019-04-01T00:15:09.959Z,9.00
2019-04-01T00:17:41.284Z,8.80
2019-04-01T00:20:13.023Z,8.70
2019-04-01T00:22:47.977Z,8.60
2019-04-01T00:25:22.511Z,8.50
2019-04-01T00:27:54.083Z,8.40
2019-04-01T00:30:26.064Z,8.40
2019-04-01T00:33:07.061Z,8.40
2019-04-01T00:35:38.210Z,8.40
2019-04-01T00:38:08.486Z,8.40
2019-04-01T00:40:40.437Z,8.40
2019-04-01T00:43:22.856Z,8.40
2019-04-01T00:45:54.790Z,8.50
2019-04-01T00:48:24.941Z,8.30
2019-04-01T00:50:55.055Z,8.20
2019-04-01T00:53:26.600Z,8.10
2019-04-01T00:55:56.976Z,8.00
2019-04-01T00:58:30.359Z,8.00
2019-04-01T01:00:58.612Z,7.80
2019-04-01T01:03:30.356Z,7.50
2019-04-01T01:06:00.064Z,7.10
2019-04-01T01:08:29.402Z,6.80
2019-04-01T01:10:59.647Z,6.70
2019-04-01T01:13:31.088Z,6.60
2019-04-01T01:16:02.061Z,6.50
2019-04-01T01:18:31.009Z,6.50
2019-04-01T01:20:59.938Z,6.50
2019-04-01T01:23:29.577Z,6.40
2019-04-01T01:25:59.699Z,6.30
2019-04-01T01:28:28.677Z,6.30
2019-04-01T01:30:57.630Z,6.40
2019-04-01T01:33:26.654Z,6.40
2019-04-01T01:35:55.605Z,6.40
2019-04-01T01:38:25.796Z,6.30
2019-04-01T01:40:57.166Z,6.20
2019-04-01T01:43:27.914Z,6.20
2019-04-01T01:45:58.017Z,6.00
2019-04-01T01:48:29.785Z,5.80
2019-04-01T01:50:59.916Z,5.70
2019-04-01T01:53:31.783Z,5.70
2019-04-01T01:56:01.892Z,5.80
2019-04-01T01:58:31.945Z,5.90
2019-04-01T02:01:03.276Z,5.90
2019-04-01T02:03:33.435Z,5.90
2019-04-01T02:06:04.973Z,5.90
2019-04-01T02:08:35.108Z,5.80
2019-04-01T02:11:05.265Z,5.80
2019-04-01T02:13:35.447Z,5.70
2019-04-01T02:16:06.947Z,5.70
2019-04-01T02:18:38.300Z,5.50
2019-04-01T02:21:08.429Z,5.50
2019-04-01T02:23:39.398Z,5.40
2019-04-01T02:26:10.457Z,5.40
2019-04-01T02:28:43.032Z,5.40
2019-04-01T02:31:16.861Z,5.40
2019-04-01T02:33:47.088Z,5.30
2019-04-01T02:36:17.274Z,5.40
2019-04-01T02:38:51.615Z,5.40
2019-04-01T02:41:22.113Z,5.40
2019-04-01T02:43:55.629Z,5.40
2019-04-01T02:46:26.128Z,5.50
2019-04-01T02:48:56.448Z,5.50
2019-04-01T02:51:26.736Z,5.50
2019-04-01T02:53:56.870Z,5.40
2019-04-01T02:56:28.828Z,5.30
2019-04-01T02:58:59.377Z,5.30
2019-04-01T03:01:34.266Z,5.20
2019-04-01T03:04:06.912Z,5.30
2019-04-01T03:06:39.054Z,5.20
2019-04-01T03:09:09.248Z,5.20
2019-04-01T03:11:39.453Z,5.20
2019-04-01T03:14:09.580Z,5.20
2019-04-01T03:16:39.744Z,5.30
2019-04-01T03:19:09.843Z,5.20
2019-04-01T03:21:40.350Z,5.20
2019-04-01T03:24:11.232Z,5.00
2019-04-01T03:26:41.542Z,5.00
2019-04-01T03:29:12.640Z,5.00
2019-04-01T03:31:43.518Z,5.00
2019-04-01T03:34:17.529Z,5.00
2019-04-01T03:36:47.626Z,5.10
2019-04-01T03:39:18.213Z,5.10
2019-04-01T03:41:48.397Z,5.10
2019-04-01T03:44:20.648Z,5.10
2019-04-01T03:46:51.241Z,5.10
2019-04-01T03:49:24.728Z,5.10
2019-04-01T03:51:55.576Z,5.00
2019-04-01T03:54:37.062Z,4.90
2019-04-01T03:57:07.633Z,4.90
2019-04-01T03:59:37.801Z,4.80
2019-04-01T04:02:11.463Z,4.80
2019-04-01T04:04:42.793Z,4.90
2019-04-01T04:07:13.950Z,4.80
2019-04-01T04:09:44.090Z,4.80
2019-04-01T04:12:15.744Z,4.90
2019-04-01T04:14:50.783Z,4.80
2019-04-01T04:17:20.059Z,4.80
2019-04-01T04:19:52.488Z,4.80
2019-04-01T04:22:25.738Z,4.80
2019-04-01T04:24:56.140Z,4.80
2019-04-01T04:27:29.176Z,4.90
2019-04-01T04:30:00.515Z,4.90
2019-04-01T04:32:30.713Z,4.80
2019-04-01T04:35:01.177Z,4.80
2019-04-01T04:37:33.717Z,4.80
2019-04-01T04:40:08.960Z,4.80
2019-04-01T04:42:40.013Z,4.80
2019-04-01T04:45:11.822Z,4.70
2019-04-01T04:47:43.039Z,4.60
2019-04-01T04:50:16.250Z,4.50
2019-04-01T04:52:46.364Z,4.40
2019-04-01T04:55:16.516Z,4.50
2019-04-01T04:57:46.630Z,4.50
2019-04-01T05:00:22.559Z,4.50
2019-04-01T05:02:56.243Z,4.50
2019-04-01T05:05:27.100Z,4.60
2019-04-01T05:07:57.643Z,4.50
2019-04-01T05:10:27.899Z,4.50
2019-04-01T05:13:00.152Z,4.40
2019-04-01T05:15:30.988Z,4.50
2019-04-01T05:18:02.498Z,4.40
2019-04-01T05:20:33.054Z,4.30
2019-04-01T05:23:05.345Z,4.20
2019-04-01T05:25:38.186Z,4.10
2019-04-01T05:28:11.596Z,4.10
2019-04-01T05:30:43.550Z,4.00
2019-04-01T05:33:17.080Z,4.00
2019-04-01T05:35:48.465Z,4.10
2019-04-01T05:38:20.629Z,4.00
2019-04-01T05:40:50.815Z,4.00
2019-04-01T05:43:25.888Z,4.10
2019-04-01T05:45:56.375Z,4.10
2019-04-01T05:48:29.922Z,4.10
2019-04-01T05:51:03.283Z,4.30
2019-04-01T05:53:33.454Z,4.40
2019-04-01T05:56:04.616Z,4.60
2019-04-01T05:58:34.793Z,4.70
2019-04-01T06:01:19.147Z,4.90
2019-04-01T06:03:51.519Z,5.00
2019-04-01T06:06:23.499Z,5.20
2019-04-01T06:08:54.528Z,5.30
2019-04-01T06:11:25.753Z,5.40
2019-04-01T06:13:57.386Z,5.60
2019-04-01T06:16:28.026Z,5.70
2019-04-01T06:19:00.366Z,5.80
2019-04-01T06:21:32.767Z,5.80
2019-04-01T06:24:05.458Z,5.90
2019-04-01T06:26:59.201Z,6.10
2019-04-01T06:29:31.622Z,6.20
2019-04-01T06:32:04.723Z,6.30
2019-04-01T06:34:36.605Z,6.40
2019-04-01T06:37:09.682Z,6.50
2019-04-01T06:39:47.028Z,6.70
2019-04-01T06:42:20.976Z,6.70
2019-04-01T06:45:10.001Z,6.80
2019-04-01T06:47:46.912Z,6.90
2019-04-01T06:50:22.910Z,7.00
2019-04-01T06:52:58.850Z,7.10
2019-04-01T06:55:29.373Z,7.20
2019-04-01T06:58:12.051Z,7.30
2019-04-01T07:00:47.747Z,7.40
2019-04-01T07:03:21.004Z,7.50
2019-04-01T07:05:55.429Z,7.50
2019-04-01T07:08:27.435Z,7.50
2019-04-01T07:12:29.721Z,7.60
2019-04-01T07:15:01.845Z,7.70
2019-04-01T07:17:32.712Z,8.00
2019-04-01T07:20:09.189Z,8.10
2019-04-01T07:22:42.768Z,8.20
2019-04-01T07:25:14.109Z,8.30
2019-04-01T07:27:52.382Z,8.30
2019-04-01T07:30:29.913Z,8.20
2019-04-01T07:33:02.852Z,8.30
2019-04-01T07:35:46.481Z,8.40
2019-04-01T07:38:19.052Z,8.40
2019-04-01T07:40:59.206Z,8.30
2019-04-01T07:43:32.512Z,8.40
2019-04-01T07:48:38.905Z,8.70
2019-04-01T07:51:30.862Z,8.80
2019-04-01T07:54:07.806Z,8.80
2019-04-01T07:56:45.218Z,9.00
2019-04-01T07:59:21.419Z,9.10
2019-04-01T08:02:00.758Z,9.20
2019-04-01T08:04:39.915Z,9.30
2019-04-01T08:07:17.394Z,9.30
2019-04-01T08:09:58.951Z,9.40
2019-04-01T08:12:46.173Z,9.40
2019-04-01T08:15:37.457Z,9.50
2019-04-01T08:18:15.657Z,9.60
2019-04-01T08:21:03.662Z,9.70
2019-04-01T08:24:02.504Z,9.80
2019-04-01T08:26:34.145Z,9.80
2019-04-01T08:29:10.463Z,9.90
2019-04-01T08:31:46.271Z,9.80
2019-04-01T08:34:23.855Z,9.80
2019-04-01T08:37:04.915Z,10.00
2019-04-01T08:39:38.855Z,10.10
2019-04-01T08:42:11.444Z,10.30
2019-04-01T08:44:47.738Z,10.40
2019-04-01T08:47:22.656Z,10.50
2019-04-01T08:53:55.403Z,10.80
2019-04-01T08:56:39.425Z,11.10
2019-04-01T09:02:17.199Z,11.50
2019-04-01T09:04:40.175Z,11.30
2019-04-01T09:07:12.782Z,11.30
2019-04-01T09:09:43.478Z,11.30
2019-04-01T09:12:14.498Z,11.30
2019-04-01T09:15:03.644Z,11.50
2019-04-01T09:17:40.368Z,11.60
2019-04-01T09:20:11.302Z,11.60
2019-04-01T09:22:43.440Z,11.70
2019-04-01T09:25:19.020Z,11.80
2019-04-01T09:27:52.157Z,11.70
2019-04-01T09:30:23.395Z,11.80
2019-04-01T09:32:53.613Z,12.00
2019-04-01T09:35:27.520Z,12.20
2019-04-01T09:37:59.385Z,12.30
2019-04-01T09:40:32.328Z,12.40
2019-04-01T09:43:07.467Z,12.50
2019-04-01T09:45:40.528Z,12.60
2019-04-01T09:48:12.229Z,12.80
2019-04-01T09:50:47.080Z,12.80
2019-04-01T09:53:17.227Z,12.90
2019-04-01T09:58:31.445Z,13.20
2019-04-01T10:01:04.551Z,13.10
2019-04-01T10:03:43.998Z,13.10
2019-04-01T10:06:21.723Z,13.30
2019-04-01T10:08:55.085Z,13.10
2019-04-01T10:11:32.531Z,13.20
2019-04-01T10:14:34.167Z,13.30
2019-04-01T10:17:19.210Z,13.30
2019-04-01T10:19:54.826Z,13.00
2019-04-01T10:22:40.084Z,13.00
2019-04-01T10:25:22.387Z,13.20
2019-04-01T10:27:59.950Z,13.20
2019-04-01T10:30:47.189Z,13.30
2019-04-01T10:33:46.380Z,13.30
2019-04-01T10:36:41.616Z,13.50
2019-04-01T10:39:30.573Z,13.70
2019-04-01T10:42:12.494Z,13.90
2019-04-01T10:45:02.054Z,13.70
2019-04-01T10:47:59.868Z,13.90
2019-04-01T10:51:01.655Z,14.10
2019-04-01T10:53:56.144Z,14.30
2019-04-01T10:56:36.058Z,14.50
2019-04-01T10:59:23.122Z,14.60
2019-04-01T11:01:58.793Z,14.80
2019-04-01T11:04:39.251Z,14.70
2019-04-01T11:07:37.538Z,14.70
2019-04-01T11:10:40.518Z,14.70
2019-04-01T11:13:31.273Z,14.90
2019-04-01T11:16:11.352Z,15.10
2019-04-01T11:19:25.783Z,15.20
2019-04-01T11:22:24.088Z,15.30
2019-04-01T11:25:35.395Z,15.40
2019-04-01T11:28:05.661Z,15.50
2019-04-01T11:30:57.244Z,15.50
2019-04-01T11:34:20.945Z,15.60
2019-04-01T11:37:31.861Z,15.60
2019-04-01T11:41:10.917Z,15.50
2019-04-01T11:48:30.312Z,15.60
2019-04-01T11:51:58.423Z,15.80
2019-04-01T12:01:15.567Z,16.20
2019-04-01T12:03:56.263Z,16.30
2019-04-01T12:06:53.069Z,16.60
2019-04-01T12:09:52.420Z,16.80
2019-04-01T12:13:07.531Z,16.80
2019-04-01T12:19:20.201Z,16.50
2019-04-01T12:21:58.265Z,16.70
2019-04-01T12:28:41.008Z,17.00
2019-04-01T12:31:31.868Z,17.20
2019-04-01T12:34:35.016Z,17.30
2019-04-01T12:37:13.893Z,17.10
2019-04-01T12:40:09.982Z,17.40
2019-04-01T12:42:50.491Z,17.70
2019-04-01T12:45:40.850Z,17.90
2019-04-01T12:48:35.971Z,17.90
2019-04-01T12:51:14.383Z,17.90
2019-04-01T12:53:53.094Z,17.70
2019-04-01T12:56:34.581Z,17.80
2019-04-01T13:02:31.077Z,18.40
2019-04-01T13:05:20.851Z,18.70
2019-04-01T13:08:02.042Z,18.80
2019-04-01T13:10:48.683Z,18.80
2019-04-01T13:13:27.081Z,18.90
2019-04-01T13:16:37.248Z,19.10
2019-04-01T13:19:37.068Z,19.40
2019-04-01T13:22:10.834Z,19.70
2019-04-01T13:24:54.363Z,19.60
2019-04-01T13:27:32.793Z,19.60
2019-04-01T13:30:08.349Z,19.30
2019-04-01T13:32:59.103Z,19.40
2019-04-01T13:39:04.126Z,20.20
2019-04-01T13:41:45.826Z,20.20
2019-04-01T13:44:35.689Z,20.20
2019-04-01T13:47:01.572Z,20.50
2019-04-01T13:49:39.729Z,20.60
2019-04-01T13:52:26.741Z,21.30
2019-04-01T13:55:09.830Z,21.80
2019-04-01T13:57:48.646Z,22.10
2019-04-01T14:00:23.239Z,22.70
2019-04-01T14:03:26.264Z,22.60
2019-04-01T14:06:06.033Z,22.90
2019-04-01T14:08:33.418Z,23.50
2019-04-01T14:14:48.694Z,23.40
2019-04-01T14:17:41.974Z,23.50
2019-04-01T14:20:28.008Z,24.00
2019-04-01T14:23:04.039Z,25.00
2019-04-01T14:25:55.989Z,25.10
2019-04-01T14:31:31.008Z,24.10
2019-04-01T14:34:06.437Z,23.50
2019-04-01T14:39:39.479Z,23.30
2019-04-01T14:42:12.717Z,22.70
2019-04-01T14:44:51.936Z,22.20
2019-04-01T14:47:23.866Z,21.70
2019-04-01T14:49:56.648Z,21.70
2019-04-01T14:52:32.742Z,22.30
2019-04-01T14:54:59.293Z,23.30
2019-04-01T14:57:29.439Z,23.80
2019-04-01T14:59:59.653Z,24.50
2019-04-01T15:02:31.336Z,25.10
2019-04-01T15:05:04.661Z,25.40
2019-04-01T15:07:34.344Z,25.00
2019-04-01T15:10:05.364Z,24.20
2019-04-01T15:12:36.594Z,22.70
2019-04-01T15:15:10.204Z,21.40
2019-04-01T15:17:42.909Z,20.80
2019-04-01T15:20:16.180Z,20.90
2019-04-01T15:22:48.219Z,21.20
2019-04-01T15:25:20.660Z,22.20
2019-04-01T15:27:52.814Z,23.30
2019-04-01T15:30:23.932Z,24.30
2019-04-01T15:32:54.245Z,24.60
2019-04-01T15:35:24.457Z,24.80
2019-04-01T15:37:55.505Z,24.80
2019-04-01T15:40:33.041Z,25.20
2019-04-01T15:43:03.781Z,25.00
2019-04-01T15:45:37.639Z,23.30
2019-04-01T15:48:08.032Z,22.30
2019-04-01T15:50:42.428Z,21.40
2019-04-01T15:53:12.983Z,21.00
2019-04-01T15:55:49.107Z,20.80
2019-04-01T16:05:42.108Z,19.90
2019-04-01T16:08:36.329Z,19.60
2019-04-01T16:15:54.132Z,19.20
2019-04-01T16:18:24.349Z,18.90
2019-04-01T16:20:59.282Z,18.60
2019-04-01T16:23:28.399Z,18.50
2019-04-01T16:26:03.238Z,18.40
2019-04-01T16:28:37.091Z,18.40
2019-04-01T16:31:07.739Z,18.20
2019-04-01T16:33:37.979Z,18.00
2019-04-01T16:36:10.329Z,17.80
2019-04-01T16:38:47.395Z,17.80
2019-04-01T16:41:19.861Z,17.90
2019-04-01T16:43:56.275Z,17.90
2019-04-01T16:46:29.849Z,17.80
2019-04-01T16:49:03.272Z,17.80
2019-04-01T16:51:41.529Z,17.80
2019-04-01T16:54:12.067Z,17.80
2019-04-01T16:56:42.837Z,17.70
2019-04-01T16:59:15.017Z,17.60
2019-04-01T17:01:47.940Z,17.50
2019-04-01T17:04:18.151Z,17.40
2019-04-01T17:06:49.513Z,17.30
2019-04-01T17:09:58.300Z,17.10
2019-04-01T17:12:31.547Z,17.00
2019-04-01T17:15:05.635Z,17.00
2019-04-01T17:24:56.336Z,16.50
2019-04-01T17:27:47.142Z,16.40
2019-04-01T17:30:24.745Z,16.20
2019-04-01T17:35:52.382Z,16.00
2019-04-01T17:38:27.921Z,15.90
2019-04-01T17:41:10.445Z,15.80
2019-04-01T17:43:45.683Z,15.70
2019-04-01T17:46:35.329Z,15.50
2019-04-01T17:49:10.145Z,15.40
2019-04-01T17:51:54.048Z,15.30
2019-04-01T17:54:29.172Z,15.10
2019-04-01T17:57:13.643Z,15.00
2019-04-01T17:59:47.331Z,15.00
2019-04-01T18:02:30.425Z,14.90
2019-04-01T18:05:04.877Z,14.70
2019-04-01T18:07:38.571Z,14.60
2019-04-01T18:10:09.778Z,14.50
2019-04-01T18:12:40.007Z,14.40
2019-04-01T18:15:10.372Z,14.30
2019-04-01T18:17:44.404Z,14.20
2019-04-01T18:20:19.853Z,14.00
2019-04-01T18:23:06.484Z,14.00
2019-04-01T18:25:38.463Z,13.90
2019-04-01T18:28:13.105Z,13.70
2019-04-01T18:30:43.877Z,13.60
2019-04-01T18:33:14.281Z,13.40
2019-04-01T18:35:54.260Z,13.30
2019-04-01T18:38:21.384Z,13.10
2019-04-01T18:40:52.198Z,12.90
2019-04-01T18:43:24.381Z,12.80
2019-04-01T18:45:58.547Z,12.70
2019-04-01T18:48:31.093Z,12.60
2019-04-01T18:51:06.877Z,12.30
2019-04-01T18:53:37.130Z,12.20
2019-04-01T18:56:12.109Z,12.10
2019-04-01T18:58:43.260Z,11.90
2019-04-01T19:01:17.029Z,11.80
2019-04-01T19:03:49.735Z,11.60
2019-04-01T19:06:22.994Z,11.60
2019-04-01T19:09:08.770Z,11.40
2019-04-01T19:11:30.100Z,11.30
2019-04-01T19:14:00.868Z,11.20
2019-04-01T19:16:40.659Z,11.10
2019-04-01T19:19:11.561Z,11.10
2019-04-01T19:21:45.316Z,11.10
2019-04-01T19:24:24.413Z,11.00
2019-04-01T19:26:57.797Z,11.00
2019-04-01T19:29:35.428Z,10.90
2019-04-01T19:32:10.487Z,10.80
2019-04-01T19:34:40.623Z,10.70
2019-04-01T19:37:12.571Z,10.60
2019-04-01T19:39:45.730Z,10.50
2019-04-01T19:42:29.099Z,10.40
2019-04-01T19:45:02.268Z,10.20
2019-04-01T19:47:36.981Z,10.00
2019-04-01T19:50:18.494Z,9.90
2019-04-01T19:52:49.791Z,9.80
2019-04-01T19:55:27.808Z,9.80
2019-04-01T19:57:58.866Z,9.60
2019-04-01T20:00:31.260Z,9.50
2019-04-01T20:03:02.126Z,9.50
2019-04-01T20:05:34.768Z,9.40
2019-04-01T20:08:07.446Z,9.40
2019-04-01T20:10:41.292Z,9.50
2019-04-01T20:13:13.143Z,9.30
2019-04-01T20:16:10.091Z,9.20
2019-04-01T20:18:41.507Z,9.10
2019-04-01T20:21:15.415Z,9.20
2019-04-01T20:23:48.703Z,9.00
2019-04-01T20:26:22.224Z,8.90
2019-04-01T20:28:53.603Z,8.80
2019-04-01T20:31:38.227Z,8.90
2019-04-01T20:34:19.696Z,8.90
2019-04-01T20:36:52.439Z,8.80
2019-04-01T20:39:25.280Z,8.70
2019-04-01T20:41:56.611Z,8.60
2019-04-01T20:44:32.793Z,8.50
2019-04-01T20:47:01.033Z,8.30
2019-04-01T20:49:31.199Z,8.20
2019-04-01T20:52:09.281Z,8.20
2019-04-01T20:54:45.188Z,8.30
2019-04-01T20:57:17.309Z,8.20
2019-04-01T20:59:50.617Z,8.10
2019-04-01T21:02:24.510Z,8.10
2019-04-01T21:04:57.371Z,8.00
2019-04-01T21:07:28.132Z,8.00
2019-04-01T21:09:59.874Z,8.00
2019-04-01T21:12:30.442Z,8.10
2019-04-01T21:15:05.421Z,8.10
2019-04-01T21:17:44.861Z,8.10
2019-04-01T21:20:20.154Z,8.00
2019-04-01T21:22:51.299Z,8.00
2019-04-01T21:25:25.493Z,7.90
2019-04-01T21:27:58.717Z,7.80
2019-04-01T21:30:31.041Z,7.60
2019-04-01T21:33:05.869Z,7.50
2019-04-01T21:35:38.556Z,7.40
2019-04-01T21:38:11.894Z,7.30
2019-04-01T21:40:45.813Z,7.30
2019-04-01T21:43:20.260Z,7.30
2019-04-01T21:45:51.784Z,7.30
2019-04-01T21:48:28.196Z,7.20
2019-04-01T21:51:05.484Z,7.30
2019-04-01T21:53:39.213Z,7.20
2019-04-01T21:56:11.036Z,7.20
2019-04-01T21:58:45.487Z,7.10
2019-04-01T22:01:17.808Z,7.10
2019-04-01T22:03:49.496Z,7.00
2019-04-01T22:06:22.110Z,7.00
2019-04-01T22:08:54.218Z,7.00
2019-04-01T22:11:26.777Z,7.00
2019-04-01T22:13:59.342Z,7.10
2019-04-01T22:16:31.961Z,7.10
2019-04-01T22:19:04.058Z,7.10
2019-04-01T22:21:35.401Z,7.10
2019-04-01T22:24:12.672Z,7.00
2019-04-01T22:26:47.503Z,6.90
2019-04-01T22:29:21.874Z,6.70
2019-04-01T22:31:53.460Z,6.60
2019-04-01T22:34:31.004Z,6.60
2019-04-01T22:37:03.707Z,6.50
2019-04-01T22:39:38.908Z,6.40
2019-04-01T22:42:12.479Z,6.30
2019-04-01T22:44:48.227Z,6.40
2019-04-01T22:47:26.077Z,6.40
2019-04-01T22:50:02.616Z,6.40
2019-04-01T22:52:48.204Z,6.50
2019-04-01T22:55:42.409Z,6.50
2019-04-01T22:58:18.641Z,6.40
2019-04-01T23:01:03.030Z,6.40
2019-04-01T23:03:37.768Z,6.30
2019-04-01T23:09:09.884Z,6.20
2019-04-01T23:11:57.458Z,6.20
2019-04-01T23:14:29.715Z,6.10
2019-04-01T23:17:08.057Z,6.00
2019-04-01T23:19:40.465Z,6.00
2019-04-01T23:22:13.623Z,5.90
2019-04-01T23:24:47.163Z,5.90
2019-04-01T23:27:17.670Z,5.90
2019-04-01T23:29:53.565Z,5.90
2019-04-01T23:32:45.807Z,5.90
2019-04-01T23:35:24.274Z,5.90
2019-04-01T23:38:04.620Z,6.00
2019-04-01T23:40:35.642Z,6.00
2019-04-01T23:43:11.405Z,6.00
2019-04-01T23:45:46.909Z,5.90
2019-04-01T23:48:26.058Z,5.90
2019-04-01T23:50:58.077Z,5.90
2019-04-01T23:53:50.883Z,6.00
2019-04-01T23:56:27.122Z,5.90
2019-04-01T23:59:00.645Z,5.80
